Time;durP1;ratioP1;P1;durP2;ratioP2;P2;SDS_P1;SDS_P2;PMS_P1;PMS_P2;Temp;Humidity;BMP_temperature;BMP_pressure;BME280_temperature;BME280_humidity;BME280_pressure;Samples;Min_cycle;Max_cycle;Signal;HPM_P1;HPM_P2
2024/01/24 00:01:19;;;;;;;7.70;2.40;;;;;;;4.91;100.00;96370.94;7400693;19;20464;-90
2024/01/24 00:03:46;;;;;;;4.97;1.90;;;;;;;5.75;100.00;96492.69;7401216;19;20729;-91
2024/01/24 00:06:14;;;;;;;11.20;3.07;;;;;;;5.11;100.00;96398.75;7402592;19;20381;-91
2024/01/24 00:08:41;;;;;;;6.67;2.37;;;;;;;4.83;100.00;96335.06;7402272;19;20394;-91
2024/01/24 00:11:09;;;;;;;4.70;2.63;;;;;;;5.18;100.00;96373.28;7402363;19;20393;-91
2024/01/24 00:13:37;;;;;;;5.30;2.03;;;;;;;5.25;100.00;96394.59;7400408;19;20405;-91
2024/01/24 00:16:04;;;;;;;4.60;3.00;;;;;;;4.99;100.00;96345.19;7401949;19;20369;-91
2024/01/24 00:18:32;;;;;;;6.03;2.67;;;;;;;5.38;100.00;96423.47;7402271;19;20385;-91
2024/01/24 00:20:59;;;;;;;5.40;3.00;;;;;;;5.39;100.00;96412.00;7401297;19;20389;-91
2024/01/24 00:23:27;;;;;;;6.13;3.40;;;;;;;5.43;100.00;96424.50;7401085;19;20412;-91
2024/01/24 00:25:54;;;;;;;8.57;2.93;;;;;;;5.32;100.00;96410.72;7400172;19;20412;-92
2024/01/24 00:28:26;;;;;;;6.43;2.83;;;;;;;5.30;100.00;96365.94;7401881;19;20459;-92
2024/01/24 00:30:55;;;;;;;4.67;2.80;;;;;;;4.76;100.00;96289.28;7401928;19;20397;-92
2024/01/24 00:33:25;;;;;;;6.63;2.70;;;;;;;5.40;100.00;96389.38;7400325;19;20713;-91
2024/01/24 00:35:53;;;;;;;9.43;3.67;;;;;;;5.26;100.00;96338.91;7401079;19;20380;-91
2024/01/24 00:38:22;;;;;;;7.93;3.30;;;;;;;5.21;100.00;96331.13;7402212;19;20388;-92
2024/01/24 00:40:49;;;;;;;5.87;2.73;;;;;;;5.65;100.00;96386.72;7400933;19;20391;-92
2024/01/24 00:43:17;;;;;;;5.83;3.30;;;;;;;5.13;100.00;96322.00;7400590;19;20483;-91
2024/01/24 00:45:52;;;;;;;10.03;3.00;;;;;;;5.68;100.00;96391.41;7401072;19;20391;-91
2024/01/24 00:48:28;;;;;;;6.20;2.60;;;;;;;5.84;100.00;96401.78;7403372;19;20392;-91
2024/01/24 00:50:58;;;;;;;10.00;2.73;;;;;;;5.77;100.00;96380.44;7401424;19;20687;-91
2024/01/24 00:53:28;;;;;;;4.77;2.30;;;;;;;5.29;100.00;96305.34;7399403;19;20421;-92
2024/01/24 00:55:56;;;;;;;8.57;3.23;;;;;;;6.08;100.00;96417.59;7401796;19;20361;-92
2024/01/24 00:58:24;;;;;;;11.90;3.00;;;;;;;5.96;100.00;96402.25;7400540;19;20380;-91
2024/01/24 01:00:51;;;;;;;7.83;2.60;;;;;;;5.65;100.00;96336.47;7399504;19;20384;-91
2024/01/24 01:03:19;;;;;;;10.20;2.60;;;;;;;5.82;100.00;96359.59;7399231;19;20875;-91
2024/01/24 01:05:46;;;;;;;3.83;2.20;;;;;;;5.38;100.00;96282.94;7400401;19;20850;-92
2024/01/24 01:08:14;;;;;;;5.60;2.93;;;;;;;5.27;100.00;96263.19;7400388;19;20673;-92
2024/01/24 01:10:41;;;;;;;9.17;3.63;;;;;;;5.44;100.00;96288.91;7400206;19;20373;-91
2024/01/24 01:13:09;;;;;;;7.13;2.90;;;;;;;5.79;100.00;96334.09;7398985;19;20460;-92
2024/01/24 01:15:36;;;;;;;4.97;2.67;;;;;;;5.56;100.00;96280.78;7400020;19;20364;-92
2024/01/24 01:18:04;;;;;;;5.07;2.13;;;;;;;5.68;100.00;96305.47;7400001;19;20384;-92
2024/01/24 01:20:32;;;;;;;8.73;2.20;;;;;;;5.59;100.00;96295.91;7399759;19;20377;-90
2024/01/24 01:22:59;;;;;;;5.30;2.43;;;;;;;5.41;100.00;96247.78;7398703;19;20408;-91
2024/01/24 01:25:27;;;;;;;2.40;1.87;;;;;;;6.21;100.00;96346.66;7398928;19;20392;-91
2024/01/24 01:27:57;;;;;;;8.53;2.43;;;;;;;5.78;100.00;96275.25;7400174;19;20373;-91
2024/01/24 01:30:24;;;;;;;4.07;1.97;;;;;;;5.55;100.00;96240.19;7399868;19;20384;-91
2024/01/24 01:32:52;;;;;;;4.33;2.77;;;;;;;5.91;100.00;96306.69;7399816;19;20417;-91
2024/01/24 01:35:19;;;;;;;5.37;2.47;;;;;;;5.75;100.00;96271.34;7399859;19;20398;-91
2024/01/24 01:37:47;;;;;;;5.37;2.27;;;;;;;6.05;100.00;96311.31;7398908;19;20388;-91
2024/01/24 01:40:14;;;;;;;5.53;2.33;;;;;;;6.22;100.00;96335.19;7400042;19;20377;-92
2024/01/24 01:42:44;;;;;;;3.83;2.33;;;;;;;6.66;100.00;96395.16;7397091;19;20427;-91
2024/01/24 01:45:11;;;;;;;3.97;2.20;;;;;;;6.25;100.00;96317.19;7399544;19;20398;-92
2024/01/24 01:47:39;;;;;;;3.60;2.10;;;;;;;5.97;100.00;96276.19;7401118;19;20365;-92
2024/01/24 01:50:14;;;;;;;4.73;1.90;;;;;;;5.96;100.00;96287.63;7400414;19;20369;-92
2024/01/24 01:52:45;;;;;;;4.30;2.30;;;;;;;5.82;100.00;96229.38;7398058;19;20413;-92
2024/01/24 01:55:14;;;;;;;12.73;8.07;;;;;;;6.11;100.00;96281.59;7398790;19;20369;-92
2024/01/24 01:57:43;;;;;;;8.70;5.00;;;;;;;6.51;100.00;96332.69;7399298;19;20381;-92
2024/01/24 02:00:19;;;;;;;3.50;3.20;;;;;;;6.00;100.00;96256.66;7399078;19;20393;-92
2024/01/24 02:02:48;;;;;;;4.90;2.60;;;;;;;5.75;100.00;96213.28;7397061;19;20487;-91
2024/01/24 02:05:16;;;;;;;4.50;4.07;;;;;;;6.25;100.00;96288.53;7398562;19;20363;-91
2024/01/24 02:07:45;;;;;;;4.33;2.13;;;;;;;6.93;100.00;96393.94;7396684;19;20393;-91
2024/01/24 02:10:14;;;;;;;6.50;2.13;;;;;;;6.91;100.00;96375.97;7399893;19;20353;-91
2024/01/24 02:12:41;;;;;;;4.37;1.60;;;;;;;5.52;100.00;96166.03;7397852;19;20409;-91
2024/01/24 02:15:09;;;;;;;4.10;2.23;;;;;;;6.43;100.00;96288.94;7398811;19;20376;-91
2024/01/24 02:17:37;;;;;;;6.30;1.93;;;;;;;6.96;100.00;96362.09;7397847;19;20377;-91
2024/01/24 02:20:09;;;;;;;5.60;2.40;;;;;;;6.33;100.00;96255.88;7398079;19;20394;-92
2024/01/24 02:22:37;;;;;;;4.83;2.27;;;;;;;6.05;100.00;96202.66;7396971;19;20909;-92
2024/01/24 02:25:05;;;;;;;3.90;1.70;;;;;;;6.18;100.00;96215.09;7398927;19;20369;-92
2024/01/24 02:27:35;;;;;;;3.37;1.50;;;;;;;6.50;100.00;96271.94;7396547;19;20356;-92
2024/01/24 02:30:04;;;;;;;3.60;1.70;;;;;;;6.16;100.00;96225.00;7398118;19;20862;-91
2024/01/24 02:32:32;;;;;;;9.60;5.20;;;;;;;6.09;100.00;96213.31;7398896;19;20690;-91
2024/01/24 02:35:00;;;;;;;5.20;1.70;;;;;;;6.28;100.00;96241.06;7397470;19;20380;-91
2024/01/24 02:37:27;;;;;;;10.47;2.37;;;;;;;6.50;100.00;96271.13;7397968;19;20397;-92
2024/01/24 02:39:55;;;;;;;4.00;1.57;;;;;;;6.48;100.00;96258.38;7397301;19;20384;-92
2024/01/24 02:42:23;;;;;;;5.83;2.53;;;;;;;6.47;100.00;96266.47;7396450;19;20385;-91
2024/01/24 02:44:51;;;;;;;2.13;1.90;;;;;;;6.37;100.00;96233.47;7397067;19;20377;-91
2024/01/24 02:47:21;;;;;;;3.33;1.87;;;;;;;6.71;100.00;96269.94;7397252;19;20403;-91
2024/01/24 02:49:49;;;;;;;6.30;2.13;;;;;;;6.77;100.00;96279.28;7397556;19;20385;-92
2024/01/24 02:52:17;;;;;;;5.03;2.60;;;;;;;6.30;100.00;96199.09;7399392;19;20361;-92
2024/01/24 02:54:45;;;;;;;4.80;1.90;;;;;;;6.08;100.00;96170.84;7397480;19;20368;-92
2024/01/24 02:57:12;;;;;;;7.80;2.47;;;;;;;6.71;100.00;96243.84;7397370;19;20434;-92
2024/01/24 02:59:40;;;;;;;7.57;1.97;;;;;;;6.28;100.00;96183.75;7396865;19;20369;-92
2024/01/24 03:02:07;;;;;;;2.13;1.47;;;;;;;6.71;100.00;96240.47;7395764;19;20401;-90
2024/01/24 03:04:35;;;;;;;4.57;2.27;;;;;;;6.35;100.00;96170.38;7397209;19;20372;-92
2024/01/24 03:07:03;;;;;;;8.03;2.63;;;;;;;6.05;100.00;96132.34;7396671;19;20898;-92
2024/01/24 03:09:30;;;;;;;6.63;2.27;;;;;;;6.41;100.00;96176.34;7397164;19;20369;-92
2024/01/24 03:11:58;;;;;;;6.17;1.97;;;;;;;6.50;100.00;96172.88;7396746;19;20456;-92
2024/01/24 03:14:25;;;;;;;4.17;1.70;;;;;;;6.55;100.00;96166.81;7395321;19;20427;-92
2024/01/24 03:16:53;;;;;;;3.03;1.77;;;;;;;6.78;100.00;96196.59;7396478;19;20389;-92
2024/01/24 03:19:21;;;;;;;4.13;1.60;;;;;;;6.87;100.00;96203.53;7398294;19;20396;-92
2024/01/24 03:21:48;;;;;;;5.20;1.40;;;;;;;6.55;100.00;96148.59;7402966;19;20404;-92
2024/01/24 03:24:17;;;;;;;3.03;2.07;;;;;;;6.85;100.00;96197.03;7401558;19;20488;-91
2024/01/24 03:26:44;;;;;;;6.80;1.80;;;;;;;7.53;100.00;96284.81;7403829;19;20400;-92
2024/01/24 03:29:12;;;;;;;2.60;1.43;;;;;;;6.72;100.00;96138.50;7405810;19;20353;-92
2024/01/24 03:31:43;;;;;;;5.70;1.43;;;;;;;6.41;100.00;96104.13;7404493;19;20388;-92
2024/01/24 03:34:13;;;;;;;7.67;2.00;;;;;;;7.14;100.00;96220.47;7401926;19;20404;-92
2024/01/24 03:36:41;;;;;;;4.60;1.30;;;;;;;6.90;100.00;96178.72;7403613;19;20388;-91
2024/01/24 03:39:11;;;;;;;4.30;1.70;;;;;;;7.05;100.00;96201.28;7403428;19;20393;-92
2024/01/24 03:41:39;;;;;;;5.70;1.57;;;;;;;6.92;100.00;96184.47;7403425;19;20411;-92
2024/01/24 03:44:06;;;;;;;2.20;1.27;;;;;;;6.99;100.00;96184.13;7400808;19;20401;-93
2024/01/24 03:46:34;;;;;;;3.27;1.83;;;;;;;7.10;100.00;96181.13;7403743;19;20456;-92
2024/01/24 03:49:02;;;;;;;8.37;1.97;;;;;;;7.46;100.00;96228.47;7403856;19;20357;-92
2024/01/24 03:51:30;;;;;;;6.97;1.57;;;;;;;7.35;100.00;96203.53;7403159;19;20373;-92
2024/01/24 03:53:58;;;;;;;4.77;2.00;;;;;;;7.12;100.00;96150.31;7402048;19;20416;-92
2024/01/24 03:56:25;;;;;;;4.97;1.87;;;;;;;6.53;100.00;96068.03;7402755;19;20870;-92
2024/01/24 03:58:54;;;;;;;8.30;2.40;;;;;;;7.15;100.00;96128.84;7403343;19;20707;-92
2024/01/24 04:01:21;;;;;;;9.47;2.23;;;;;;;7.26;100.00;96142.56;7403435;19;20381;-89
2024/01/24 04:03:49;;;;;;;5.73;2.07;;;;;;;6.96;100.00;96085.53;7421173;19;20457;-90
2024/01/24 04:06:17;;;;;;;16.43;8.70;;;;;;;7.91;100.00;96202.03;7421506;19;20353;-92
2024/01/24 04:08:44;;;;;;;21.77;12.10;;;;;;;7.92;100.00;96175.63;7402475;19;20469;-92
2024/01/24 04:11:14;;;;;;;13.07;9.60;;;;;;;8.26;100.00;96179.84;7402934;19;20383;-92
2024/01/24 04:13:43;;;;;;;15.63;9.90;;;;;;;8.08;100.00;96176.16;7401059;19;20393;-92
2024/01/24 04:16:10;;;;;;;12.00;3.30;;;;;;;7.93;100.00;96129.38;7402487;19;20369;-92
2024/01/24 04:18:38;;;;;;;8.07;1.93;;;;;;;8.29;100.00;96181.88;7402003;19;20460;-91
2024/01/24 04:21:05;;;;;;;1.17;1.03;;;;;;;8.58;100.00;96213.03;7402604;19;20685;-92
2024/01/24 04:23:33;;;;;;;6.93;1.67;;;;;;;8.38;100.00;96185.41;7400470;19;20423;-92
2024/01/24 04:26:04;;;;;;;1.73;1.57;;;;;;;8.67;100.00;96210.56;7400381;19;20397;-92
2024/01/24 04:28:31;;;;;;;7.10;2.50;;;;;;;8.43;100.00;96159.16;7401769;19;20384;-92
2024/01/24 04:30:59;;;;;;;5.63;1.50;;;;;;;8.82;100.00;96207.66;7400036;19;20869;-92
2024/01/24 04:33:27;;;;;;;3.90;3.00;;;;;;;8.43;100.00;96163.59;7400153;19;20441;-92
2024/01/24 04:35:55;;;;;;;5.10;1.63;;;;;;;8.38;100.00;96117.41;7401466;19;20377;-93
2024/01/24 04:38:22;;;;;;;3.10;2.80;;;;;;;8.66;100.00;96170.53;7401246;19;20381;-92
2024/01/24 04:40:50;;;;;;;3.23;1.90;;;;;;;7.78;100.00;96025.09;7401644;19;20365;-93
2024/01/24 04:43:19;;;;;;;4.07;1.87;;;;;;;8.80;100.00;96191.50;7398909;19;20930;-92
2024/01/24 04:45:48;;;;;;;4.83;1.97;;;;;;;8.20;100.00;96092.06;7401205;19;20396;-92
2024/01/24 04:48:16;;;;;;;2.73;1.70;;;;;;;8.35;100.00;96110.88;7401431;19;20377;-91
2024/01/24 04:50:44;;;;;;;2.30;0.97;;;;;;;9.25;100.00;96221.28;7401287;19;20670;-91
2024/01/24 04:53:16;;;;;;;6.83;2.00;;;;;;;8.81;100.00;96144.09;7400298;19;20966;-92
2024/01/24 04:55:46;;;;;;;6.60;3.27;;;;;;;8.77;100.00;96130.00;7402060;19;20376;-92
2024/01/24 04:58:14;;;;;;;3.03;2.40;;;;;;;8.40;100.00;96070.81;7401341;19;20365;-92
2024/01/24 05:00:41;;;;;;;3.87;2.20;;;;;;;8.62;100.00;96085.81;7401042;19;20357;-93
2024/01/24 05:03:09;;;;;;;2.47;1.53;;;;;;;8.35;100.00;96035.06;7399070;19;20421;-92
2024/01/24 05:05:36;;;;;;;7.83;3.43;;;;;;;8.74;100.00;96088.75;7400590;19;20399;-92
2024/01/24 05:08:05;;;;;;;1.77;1.60;;;;;;;9.27;100.00;96150.28;7403371;19;20397;-88
2024/01/24 05:10:33;;;;;;;3.57;1.97;;;;;;;8.81;100.00;96076.06;7399566;19;20377;-88
2024/01/24 05:13:00;;;;;;;3.10;1.57;;;;;;;8.78;100.00;96066.19;7398673;19;20385;-88
2024/01/24 05:15:27;;;;;;;4.03;2.40;;;;;;;8.99;100.00;96092.69;7399056;19;20887;-88
2024/01/24 05:17:55;;;;;;;4.43;3.40;;;;;;;9.09;100.00;96089.88;7399597;19;20386;-88
2024/01/24 05:20:23;;;;;;;2.47;1.17;;;;;;;9.01;100.00;96040.81;7399054;19;20383;-87
2024/01/24 05:22:50;;;;;;;2.90;1.50;;;;;;;9.24;100.00;96083.56;7397626;19;20408;-88
2024/01/24 05:25:18;;;;;;;3.43;1.30;;;;;;;9.23;100.00;96077.53;7397483;19;20401;-88
2024/01/24 05:27:46;;;;;;;2.70;1.30;;;;;;;8.96;100.00;96014.78;7398714;19;20376;-88
2024/01/24 05:30:14;;;;;;;2.47;1.20;;;;;;;8.98;100.00;96015.25;7398872;19;20397;-88
2024/01/24 05:33:00;;;;;;;3.47;1.50;;;;;;;9.19;100.00;96039.16;7397979;19;20408;-88
2024/01/24 05:35:28;;;;;;;4.10;1.63;;;;;;;9.03;100.00;96022.97;7398748;19;20376;-88
2024/01/24 05:37:55;;;;;;;3.30;2.17;;;;;;;8.77;100.00;95990.56;7398704;19;20885;-88
2024/01/24 05:40:23;;;;;;;2.40;1.87;;;;;;;9.19;100.00;96045.16;7398574;19;20393;-88
2024/01/24 05:42:50;;;;;;;1.30;1.20;;;;;;;9.48;100.00;96086.69;7394669;19;20423;-89
2024/01/24 05:45:19;;;;;;;4.03;1.53;;;;;;;9.18;100.00;96038.38;7398722;19;20392;-88
2024/01/24 05:47:47;;;;;;;2.80;1.20;;;;;;;8.86;100.00;95980.97;7398817;19;20393;-88
2024/01/24 05:50:14;;;;;;;1.67;1.30;;;;;;;9.36;100.00;96060.25;7400012;19;20383;-88
2024/01/24 05:52:43;;;;;;;9.37;1.87;;;;;;;8.53;100.00;95928.03;7398648;19;20428;-89
2024/01/24 05:55:12;;;;;;;2.60;1.57;;;;;;;9.94;100.00;96121.56;7400348;19;20372;-87
2024/01/24 05:57:40;;;;;;;5.13;1.40;;;;;;;9.41;100.00;96051.50;7399342;19;20394;-90
2024/01/24 06:00:13;;;;;;;3.93;1.50;;;;;;;9.47;100.00;96042.47;7397816;19;20389;-90
2024/01/24 06:02:44;;;;;;;2.50;1.23;;;;;;;9.17;100.00;95983.66;7398863;19;20641;-90
2024/01/24 06:05:11;;;;;;;5.47;1.60;;;;;;;9.33;100.00;96003.22;7418678;19;20404;-89
2024/01/24 06:07:39;;;;;;;4.93;1.30;;;;;;;8.93;100.00;95932.38;7419585;19;20381;-88
2024/01/24 06:10:07;;;;;;;6.83;1.87;;;;;;;9.26;100.00;95960.97;7403073;19;20376;-90
2024/01/24 06:12:35;;;;;;;3.53;1.40;;;;;;;9.65;100.00;96010.06;7398291;19;20380;-90
2024/01/24 06:15:02;;;;;;;1.40;1.30;;;;;;;9.91;100.00;96033.03;7399957;19;20369;-90
2024/01/24 06:17:30;;;;;;;5.07;1.77;;;;;;;9.90;100.00;96013.16;7398481;19;20389;-90
2024/01/24 06:20:00;;;;;;;1.93;1.30;;;;;;;10.22;100.00;96065.28;7398101;19;20413;-90
2024/01/24 06:22:27;;;;;;;3.30;1.60;;;;;;;9.77;100.00;95964.97;7396873;19;20420;-90
2024/01/24 06:24:57;;;;;;;2.60;1.90;;;;;;;9.66;100.00;95950.56;7396827;19;20397;-89
2024/01/24 06:27:25;;;;;;;3.23;1.73;;;;;;;9.64;100.00;95929.13;7397480;19;20378;-90
2024/01/24 06:29:52;;;;;;;6.53;2.40;;;;;;;10.69;100.00;96095.31;7397811;19;20808;-90
2024/01/24 06:32:40;;;;;;;2.83;2.60;;;;;;;10.20;100.00;96025.47;7396865;19;20412;-90
2024/01/24 06:35:10;;;;;;;4.73;1.73;;;;;;;9.59;100.00;95937.91;7397290;19;20401;-90
2024/01/24 06:37:38;;;;;;;2.73;1.50;;;;;;;9.31;100.00;95899.81;7397730;19;20392;-90
2024/01/24 06:40:06;;;;;;;2.73;1.80;;;;;;;9.71;100.00;95955.72;7396753;19;20365;-90
2024/01/24 06:42:33;;;;;;;4.70;1.40;;;;;;;9.72;100.00;95976.38;7396711;19;20435;-90
2024/01/24 06:45:01;;;;;;;2.73;1.27;;;;;;;9.20;100.00;95889.63;7397168;19;20372;-90
2024/01/24 06:47:29;;;;;;;1.43;1.00;;;;;;;9.77;100.00;95968.38;7398480;19;20379;-91
2024/01/24 06:49:56;;;;;;;2.20;1.50;;;;;;;8.71;100.00;95832.94;7398331;19;20369;-90
2024/01/24 06:52:24;;;;;;;2.80;1.33;;;;;;;9.68;100.00;95957.06;7396675;19;20372;-89
2024/01/24 06:54:51;;;;;;;2.87;1.47;;;;;;;9.64;100.00;95956.13;7400284;19;20432;-91
2024/01/24 06:57:19;;;;;;;2.63;1.57;;;;;;;9.71;100.00;95951.22;7404036;19;20381;-90
2024/01/24 06:59:50;;;;;;;1.57;1.00;;;;;;;9.67;100.00;95952.13;7404574;19;20858;-91
2024/01/24 07:02:17;;;;;;;3.00;1.50;;;;;;;9.33;100.00;95906.34;7405676;19;20369;-91
2024/01/24 07:04:48;;;;;;;1.70;1.60;;;;;;;9.60;100.00;95941.31;7403777;19;20377;-90
2024/01/24 07:07:16;;;;;;;1.50;1.10;;;;;;;9.71;100.00;95942.59;7404127;19;20364;-90
2024/01/24 07:09:43;;;;;;;5.00;1.77;;;;;;;10.02;100.00;96000.25;7405940;19;20382;-90
2024/01/24 07:12:11;;;;;;;1.53;0.90;;;;;;;9.39;100.00;95892.03;7403603;19;20383;-89
2024/01/24 07:14:39;;;;;;;2.50;2.03;;;;;;;9.46;100.00;95920.44;7403377;19;20413;-90
2024/01/24 07:17:06;;;;;;;2.27;1.63;;;;;;;9.35;100.00;95890.31;7404289;19;20400;-90
2024/01/24 07:19:35;;;;;;;3.80;1.67;;;;;;;10.26;100.00;96031.38;7403647;19;20368;-90
2024/01/24 07:22:03;;;;;;;3.57;1.23;;;;;;;10.30;100.00;96027.84;7403563;19;20380;-89
2024/01/24 07:24:31;;;;;;;1.67;1.57;;;;;;;9.76;100.00;95968.66;7400577;19;20441;-91
2024/01/24 07:26:59;;;;;;;1.30;1.20;;;;;;;10.04;100.00;95983.16;7404020;19;20377;-90
2024/01/24 07:29:26;;;;;;;3.17;1.20;;;;;;;9.35;100.00;95877.22;7403372;19;20380;-90
2024/01/24 07:31:53;;;;;;;2.43;1.40;;;;;;;9.83;100.00;95948.81;7403072;19;20377;-89
2024/01/24 07:34:21;;;;;;;3.10;1.30;;;;;;;9.89;100.00;95936.34;7400625;19;20718;-90
2024/01/24 07:36:48;;;;;;;4.30;1.60;;;;;;;9.65;100.00;95879.06;7403876;19;20707;-90
2024/01/24 07:39:16;;;;;;;2.03;1.73;;;;;;;9.29;100.00;95771.03;7402949;19;20375;-89
2024/01/24 07:41:43;;;;;;;2.70;1.63;;;;;;;10.55;100.00;96010.69;7402934;19;20393;-89
2024/01/24 07:44:11;;;;;;;3.47;1.83;;;;;;;10.14;100.00;95976.88;7400608;19;20930;-88
2024/01/24 07:46:43;;;;;;;4.03;2.07;;;;;;;9.63;100.00;95899.56;7402354;19;20389;-89
2024/01/24 07:49:12;;;;;;;4.60;1.83;;;;;;;9.62;100.00;95887.53;7404288;19;20843;-88
2024/01/24 07:51:41;;;;;;;1.40;1.30;;;;;;;9.90;100.00;95948.38;7402481;19;20783;-88
2024/01/24 07:54:09;;;;;;;1.80;1.07;;;;;;;9.97;100.00;95947.94;7400012;19;20400;-88
2024/01/24 07:56:36;;;;;;;3.27;1.50;;;;;;;9.78;100.00;95906.25;7401915;19;20377;-89
2024/01/24 07:59:05;;;;;;;3.33;1.50;;;;;;;10.32;100.00;95985.56;7402156;19;20685;-89
2024/01/24 08:01:32;;;;;;;4.03;2.00;;;;;;;9.90;100.00;95908.28;7401870;19;20861;-89
2024/01/24 08:04:00;;;;;;;1.53;1.33;;;;;;;10.27;100.00;95962.09;7400000;19;20468;-89
2024/01/24 08:06:28;;;;;;;7.53;3.00;;;;;;;10.52;100.00;96007.91;7399262;19;20456;-89
2024/01/24 08:08:56;;;;;;;1.20;1.10;;;;;;;10.10;100.00;95924.22;7401602;19;20450;-90
2024/01/24 08:11:24;;;;;;;2.30;1.70;;;;;;;10.66;100.00;96003.31;7401539;19;20405;-89
2024/01/24 08:13:52;;;;;;;2.20;1.23;;;;;;;10.24;100.00;95932.00;7401751;19;20473;-88
2024/01/24 08:16:21;;;;;;;3.27;1.70;;;;;;;10.58;100.00;95993.53;7401449;19;20384;-88
2024/01/24 08:18:48;;;;;;;4.97;1.47;;;;;;;10.38;100.00;95968.63;7401221;19;20439;-89
2024/01/24 08:21:17;;;;;;;2.00;1.80;;;;;;;10.07;100.00;95927.47;7407434;19;20384;-88
2024/01/24 08:23:45;;;;;;;1.50;1.07;;;;;;;10.24;100.00;95918.88;7419620;19;20428;-88
2024/01/24 08:26:17;;;;;;;4.43;1.80;;;;;;;10.70;100.00;95989.25;7414307;19;20401;-89
2024/01/24 08:28:45;;;;;;;2.50;1.40;;;;;;;10.42;100.00;95951.22;7400607;19;20413;-88
2024/01/24 08:31:13;;;;;;;2.60;1.33;;;;;;;10.34;100.00;95917.81;7402747;19;20369;-88
2024/01/24 08:33:41;;;;;;;2.00;1.63;;;;;;;10.68;100.00;95953.91;7400748;19;20401;-88
2024/01/24 08:36:09;;;;;;;1.70;1.60;;;;;;;10.62;100.00;95945.38;7402098;19;20365;-89
2024/01/24 08:38:36;;;;;;;1.03;0.97;;;;;;;10.88;100.00;95979.53;7400071;19;21036;-89
2024/01/24 08:41:04;;;;;;;2.30;1.27;;;;;;;11.10;100.00;96020.66;7400979;19;20389;-88
2024/01/24 08:43:31;;;;;;;1.50;1.40;;;;;;;10.89;100.00;95996.84;7398512;19;20432;-89
2024/01/24 08:45:59;;;;;;;1.20;1.00;;;;;;;10.62;100.00;95963.75;7400012;19;20382;-89
2024/01/24 08:48:26;;;;;;;1.83;1.07;;;;;;;10.69;100.00;95964.09;7399767;19;20377;-89
2024/01/24 08:50:55;;;;;;;1.63;0.90;;;;;;;10.62;100.00;95960.34;7399998;19;20361;-89
2024/01/24 08:53:22;;;;;;;1.60;1.50;;;;;;;11.05;100.00;96044.47;7398430;19;20420;-88
2024/01/24 08:55:49;;;;;;;1.73;1.40;;;;;;;10.75;100.00;96003.31;7399717;19;20384;-89
2024/01/24 08:58:17;;;;;;;4.70;4.40;;;;;;;11.24;100.00;96088.84;7400079;19;20448;-87
2024/01/24 09:00:45;;;;;;;4.00;1.77;;;;;;;10.65;100.00;95970.28;7401645;19;20365;-87
2024/01/24 09:03:13;;;;;;;1.20;1.10;;;;;;;10.90;100.00;95995.75;7398575;19;20912;-87
2024/01/24 09:05:41;;;;;;;1.30;1.20;;;;;;;11.11;100.00;96032.72;7399622;19;20717;-87
2024/01/24 09:08:09;;;;;;;1.57;1.40;;;;;;;10.52;100.00;95942.31;7399402;19;20368;-87
2024/01/24 09:10:37;;;;;;;1.40;1.00;;;;;;;10.82;100.00;95983.41;7401522;19;20372;-87
2024/01/24 09:13:04;;;;;;;1.23;1.07;;;;;;;10.77;100.00;95967.03;7398532;19;20384;-87
2024/01/24 09:15:33;;;;;;;2.10;1.57;;;;;;;10.84;100.00;95967.34;7399252;19;20452;-87
2024/01/24 09:18:01;;;;;;;1.90;1.10;;;;;;;10.86;100.00;95963.34;7400238;19;20679;-87
2024/01/24 09:20:29;;;;;;;1.20;0.90;;;;;;;11.02;100.00;95995.94;7399382;19;20399;-87
2024/01/24 09:22:56;;;;;;;2.00;1.30;;;;;;;10.72;100.00;95925.94;7398047;19;20412;-87
2024/01/24 09:25:25;;;;;;;3.63;1.50;;;;;;;10.98;100.00;95953.00;7396164;19;20417;-88
2024/01/24 09:27:53;;;;;;;2.30;1.47;;;;;;;11.19;100.00;95999.69;7398916;19;20403;-87
2024/01/24 09:30:21;;;;;;;2.47;2.27;;;;;;;11.52;100.00;96049.91;7398595;19;20360;-87
2024/01/24 09:32:49;;;;;;;1.27;1.17;;;;;;;10.81;100.00;95939.09;7397604;19;20408;-87
2024/01/24 09:35:17;;;;;;;1.73;1.40;;;;;;;10.46;100.00;95873.44;7398559;19;20364;-88
2024/01/24 09:37:45;;;;;;;1.37;1.13;;;;;;;10.90;100.00;95935.38;7398457;19;20394;-87
2024/01/24 09:40:17;;;;;;;6.00;3.03;;;;;;;10.86;100.00;95937.06;7398732;19;20369;-87
2024/01/24 09:42:45;;;;;;;2.40;2.20;;;;;;;11.12;100.00;95952.84;7397552;19;20416;-87
2024/01/24 09:45:16;;;;;;;3.00;2.70;;;;;;;11.21;100.00;95987.00;7396325;19;20381;-87
2024/01/24 09:47:49;;;;;;;1.83;1.27;;;;;;;11.23;100.00;95996.09;7398601;19;20365;-87
2024/01/24 09:50:18;;;;;;;1.07;0.97;;;;;;;11.12;100.00;95968.59;7398277;19;20453;-87
2024/01/24 09:52:46;;;;;;;1.30;1.17;;;;;;;11.06;100.00;95953.31;7397676;19;20398;-87
2024/01/24 09:55:18;;;;;;;2.03;1.10;;;;;;;10.99;100.00;95954.53;7397772;19;20491;-88
2024/01/24 09:57:46;;;;;;;1.30;1.00;;;;;;;11.05;100.00;95964.91;7397294;19;20393;-87
2024/01/24 10:00:14;;;;;;;0.80;0.80;;;;;;;11.37;100.00;96003.84;7397689;19;20424;-87
2024/01/24 10:02:48;;;;;;;1.00;0.80;;;;;;;11.61;100.00;96016.50;7398790;19;20385;-87
2024/01/24 10:05:17;;;;;;;1.00;0.83;;;;;;;12.21;100.00;96097.94;7396037;19;20886;-87
2024/01/24 10:07:46;;;;;;;1.67;0.90;;;;;;;11.58;100.00;95983.72;7397623;19;20388;-87
2024/01/24 10:10:15;;;;;;;1.60;0.80;;;;;;;11.75;100.00;96014.47;7397661;19;20381;-87
2024/01/24 10:12:43;;;;;;;0.70;0.60;;;;;;;12.04;100.00;96047.97;7396476;19;20404;-87
2024/01/24 10:15:11;;;;;;;0.93;0.83;;;;;;;12.49;100.00;96124.63;7397313;19;20385;-87
2024/01/24 10:17:43;;;;;;;0.97;0.80;;;;;;;11.92;100.00;96016.28;7397372;19;20365;-88
2024/01/24 10:20:12;;;;;;;0.77;0.77;;;;;;;11.98;100.00;96017.69;7399061;19;20869;-88
2024/01/24 10:22:41;;;;;;;0.70;0.60;;;;;;;12.17;100.00;96052.28;7397087;19;20793;-87
2024/01/24 10:25:10;;;;;;;1.00;0.70;;;;;;;12.19;100.00;96062.50;7395349;19;20416;-87
2024/01/24 10:27:39;;;;;;;0.70;0.70;;;;;;;12.16;100.00;96055.22;7397305;19;20402;-87
2024/01/24 10:30:11;;;;;;;0.90;0.80;;;;;;;12.52;100.00;96115.38;7398782;19;20373;-87
2024/01/24 10:32:47;;;;;;;1.33;1.23;;;;;;;12.00;100.00;96033.91;7397489;19;20360;-88
2024/01/24 10:35:15;;;;;;;1.60;0.90;;;;;;;11.81;100.00;96028.22;7396857;19;20400;-87
2024/01/24 10:37:44;;;;;;;1.20;1.03;;;;;;;12.11;100.00;96064.06;7397062;19;20376;-87
2024/01/24 10:40:14;;;;;;;0.70;0.60;;;;;;;12.16;100.00;96071.78;7396248;19;20394;-87
2024/01/24 10:42:44;;;;;;;2.27;0.90;;;;;;;12.24;100.00;96061.53;7395783;19;20387;-87
2024/01/24 10:45:15;;;;;;;1.83;0.80;;;;;;;12.34;100.00;96077.00;7395395;19;20369;-88
2024/01/24 10:47:44;;;;;;;1.97;0.90;;;;;;;12.30;100.00;96086.63;7396142;19;20404;-87
2024/01/24 10:50:13;;;;;;;1.07;0.77;;;;;;;12.56;100.00;96132.06;7396154;19;20385;-87
2024/01/24 10:52:43;;;;;;;2.10;1.43;;;;;;;11.91;100.00;96039.19;7395380;19;20405;-87
2024/01/24 10:55:14;;;;;;;1.17;1.00;;;;;;;11.83;100.00;96063.63;7396329;19;20918;-87
2024/01/24 10:57:43;;;;;;;0.80;0.60;;;;;;;11.90;100.00;96087.63;7396322;19;20405;-87
2024/01/24 11:00:15;;;;;;;0.70;0.60;;;;;;;11.86;100.00;96072.78;7396413;19;20421;-87
2024/01/24 11:02:43;;;;;;;2.23;0.70;;;;;;;11.71;100.00;96058.25;7395689;19;20409;-87
2024/01/24 11:05:20;;;;;;;0.90;0.70;;;;;;;11.40;100.00;96021.59;7394756;19;20421;-87
2024/01/24 11:07:58;;;;;;;2.40;1.00;;;;;;;11.98;100.00;96080.81;7395682;19;20385;-87
2024/01/24 11:10:42;;;;;;;0.87;0.73;;;;;;;11.10;100.00;95952.38;7395949;19;20400;-87
2024/01/24 11:13:14;;;;;;;1.07;0.87;;;;;;;11.45;100.00;95992.56;7395246;19;20401;-88
2024/01/24 11:15:43;;;;;;;1.10;0.70;;;;;;;11.37;100.00;96024.84;7396204;19;20393;-87
2024/01/24 11:18:25;;;;;;;0.80;0.80;;;;;;;11.63;100.00;96053.00;7395999;19;20377;-88
2024/01/24 11:21:03;;;;;;;1.10;0.80;;;;;;;11.81;100.00;96076.31;7395657;19;20862;-88
2024/01/24 11:23:42;;;;;;;0.70;0.70;;;;;;;11.32;100.00;96007.41;7395874;19;20425;-88
2024/01/24 11:26:11;;;;;;;1.63;1.33;;;;;;;11.77;100.00;96041.22;7393312;19;20716;-88
2024/01/24 11:28:39;;;;;;;0.70;0.60;;;;;;;11.64;100.00;96020.34;7394996;19;20887;-87
2024/01/24 11:31:09;;;;;;;0.80;0.80;;;;;;;11.67;100.00;95961.91;7395093;19;20422;-88
2024/01/24 11:33:57;;;;;;;0.80;0.80;;;;;;;11.97;100.00;96020.59;7394543;19;20404;-88
2024/01/24 11:36:25;;;;;;;2.43;1.00;;;;;;;12.23;100.00;96028.44;7395138;19;20369;-88